Dothan, Alabama
Current Conditions -  °F | °C
As of 4:53 AM on Sunday 23 Nov 2014 (Local Time) from KDHN Reporting Station
Light Rain Light Rain  
Wind Chill: 16°   Ceiling: 500
Heat Index: 16°   Visibility: 4mi
Dew Point: 16°   Wind: 9mph
Humidity: 100%   Direction: 100°E
Pressure: 29.95"   Gusts: NA
Location:  31.22°N, 85.39°W
Report Text: KDHN 231053Z AUTO 10008KT 4SM -RA BR OVC005 16/16 A2995 RMK AO2 SLP139 P0000 T01610161
Loading
Personal Weather Stations






























Interactive Weather Map New forecast layout! Learn more

10-Day Weather Forecast

Advertisements
Track Severe Weather on mobile